createdAt,value
2023-01-31T00:01:27.752Z,3.31
2023-01-31T00:03:56.510Z,3.30
2023-01-31T00:06:29.311Z,3.29
2023-01-31T00:08:57.359Z,3.27
2023-01-31T00:11:25.865Z,3.28
2023-01-31T00:13:53.318Z,3.24
2023-01-31T00:16:20.754Z,3.20
2023-01-31T00:18:47.971Z,3.21
2023-01-31T00:21:18.321Z,3.20
2023-01-31T00:23:45.984Z,3.21
2023-01-31T00:26:24.125Z,3.18
2023-01-31T00:28:53.008Z,3.16
2023-01-31T00:31:21.711Z,3.18
2023-01-31T00:33:49.510Z,3.19
2023-01-31T00:36:18.742Z,3.19
2023-01-31T00:38:48.895Z,3.18
2023-01-31T00:41:15.936Z,3.15
2023-01-31T00:43:42.652Z,3.15
2023-01-31T00:46:09.553Z,3.14
2023-01-31T00:48:36.330Z,3.16
2023-01-31T00:51:03.200Z,3.16
2023-01-31T00:53:30.283Z,3.17
2023-01-31T00:56:04.318Z,3.16
2023-01-31T00:58:31.040Z,3.18
2023-01-31T01:01:06.201Z,3.20
2023-01-31T01:03:33.047Z,3.23
2023-01-31T01:05:59.799Z,3.25
2023-01-31T01:08:26.757Z,3.27
2023-01-31T01:10:55.364Z,3.29
2023-01-31T01:13:22.226Z,3.30
2023-01-31T01:15:49.030Z,3.25
2023-01-31T01:18:15.895Z,3.26
2023-01-31T01:20:42.676Z,3.24
2023-01-31T01:23:09.525Z,3.22
2023-01-31T01:25:44.453Z,3.20
2023-01-31T01:28:11.198Z,3.18
2023-01-31T01:30:39.092Z,3.16
2023-01-31T01:33:05.767Z,3.17
2023-01-31T01:35:33.043Z,3.17
2023-01-31T01:37:59.829Z,3.18
2023-01-31T01:40:26.595Z,3.18
2023-01-31T01:42:53.254Z,3.17
2023-01-31T01:45:21.318Z,3.16
2023-01-31T01:47:52.671Z,3.17
2023-01-31T01:50:35.145Z,3.17
2023-01-31T01:53:10.900Z,3.15
2023-01-31T01:55:45.462Z,3.14
2023-01-31T01:58:18.197Z,3.15
2023-01-31T02:00:47.040Z,3.14
2023-01-31T02:03:14.761Z,3.10
2023-01-31T02:05:41.476Z,3.07
2023-01-31T02:08:09.980Z,3.05
2023-01-31T02:10:49.706Z,3.06
2023-01-31T02:13:17.523Z,3.05
2023-01-31T02:15:44.520Z,3.05
2023-01-31T02:18:12.838Z,3.04
2023-01-31T02:21:19.676Z,3.06
2023-01-31T02:24:11.396Z,3.03
2023-01-31T02:26:56.297Z,2.99
2023-01-31T02:29:41.654Z,2.98
2023-01-31T02:32:14.404Z,2.98
2023-01-31T02:34:53.104Z,2.98
2023-01-31T02:37:32.696Z,2.95
2023-01-31T02:40:24.164Z,2.93
2023-01-31T02:43:13.380Z,2.92
2023-01-31T02:45:49.400Z,2.93
2023-01-31T02:48:26.953Z,2.92
2023-01-31T02:51:23.059Z,2.91
2023-01-31T02:53:56.075Z,2.89
2023-01-31T02:56:29.414Z,2.89
2023-01-31T02:59:05.941Z,2.87
2023-01-31T03:01:38.567Z,2.89
2023-01-31T03:04:11.117Z,2.92
2023-01-31T03:06:37.825Z,2.90
2023-01-31T03:09:31.566Z,2.89
2023-01-31T03:12:13.731Z,2.90
2023-01-31T03:14:57.156Z,2.89
2023-01-31T03:17:34.323Z,2.88
2023-01-31T03:20:15.822Z,2.88
2023-01-31T03:22:54.485Z,2.90
2023-01-31T03:25:25.053Z,2.90
2023-01-31T03:27:57.640Z,2.92
2023-01-31T03:30:32.975Z,2.94
2023-01-31T03:33:06.071Z,2.93
2023-01-31T03:35:36.965Z,2.95
2023-01-31T03:38:25.546Z,2.96
2023-01-31T03:41:03.000Z,2.97
2023-01-31T03:43:56.398Z,2.94
2023-01-31T03:46:29.732Z,2.93
2023-01-31T03:48:59.827Z,2.95
2023-01-31T03:51:31.524Z,2.93
2023-01-31T03:54:07.039Z,2.94
2023-01-31T03:56:46.970Z,2.90
2023-01-31T03:59:18.533Z,2.92
2023-01-31T04:01:48.812Z,2.94
2023-01-31T04:04:23.471Z,2.99
2023-01-31T04:06:50.703Z,2.99
2023-01-31T04:09:17.531Z,2.99
2023-01-31T04:11:48.574Z,3.00
2023-01-31T04:14:16.672Z,3.00
2023-01-31T04:16:44.077Z,3.00
2023-01-31T04:19:11.004Z,3.01
2023-01-31T04:21:37.715Z,3.02
2023-01-31T04:24:04.832Z,3.03
2023-01-31T04:26:32.151Z,3.03
2023-01-31T04:28:58.949Z,3.04
2023-01-31T04:31:25.842Z,3.04
2023-01-31T04:33:52.644Z,3.02
2023-01-31T04:36:19.437Z,3.01
2023-01-31T04:38:46.393Z,3.01
2023-01-31T04:41:13.108Z,3.01
2023-01-31T04:43:39.781Z,3.00
2023-01-31T04:46:06.571Z,2.98
2023-01-31T04:48:33.907Z,2.99
2023-01-31T04:51:00.974Z,2.96
2023-01-31T04:53:27.745Z,2.95
2023-01-31T04:55:55.217Z,2.92
2023-01-31T04:58:22.533Z,2.92
2023-01-31T05:00:49.547Z,2.90
2023-01-31T05:03:16.633Z,2.90
2023-01-31T05:05:43.452Z,2.83
2023-01-31T05:08:10.332Z,2.81
2023-01-31T05:10:37.265Z,2.77
2023-01-31T05:13:04.083Z,2.74
2023-01-31T05:15:31.495Z,2.70
2023-01-31T05:18:02.858Z,2.68
2023-01-31T05:20:38.325Z,2.69
2023-01-31T05:23:05.246Z,2.67
2023-01-31T05:25:32.471Z,2.62
2023-01-31T05:27:59.234Z,2.61
2023-01-31T05:30:26.414Z,2.60
2023-01-31T05:32:53.451Z,2.55
2023-01-31T05:35:20.633Z,2.53
2023-01-31T05:37:48.092Z,2.53
2023-01-31T05:40:16.925Z,2.50
2023-01-31T05:42:44.322Z,2.50
2023-01-31T05:45:12.240Z,2.54
2023-01-31T05:47:39.384Z,2.54
2023-01-31T05:50:06.714Z,2.48
2023-01-31T05:52:33.519Z,2.44
2023-01-31T05:55:00.428Z,2.45
2023-01-31T05:57:27.200Z,2.46
2023-01-31T05:59:53.936Z,2.44
2023-01-31T06:02:20.723Z,2.44
2023-01-31T06:04:47.589Z,2.44
2023-01-31T06:07:14.352Z,2.41
2023-01-31T06:09:41.886Z,2.39
2023-01-31T06:12:14.679Z,2.38
2023-01-31T06:14:41.495Z,2.37
2023-01-31T06:17:08.361Z,2.31
2023-01-31T06:19:35.098Z,2.29
2023-01-31T06:22:01.938Z,2.26
2023-01-31T06:24:28.663Z,2.26
2023-01-31T06:26:55.345Z,2.15
2023-01-31T06:29:22.159Z,2.08
2023-01-31T06:31:49.032Z,1.97
2023-01-31T06:34:18.636Z,1.88
2023-01-31T06:36:45.347Z,1.80
2023-01-31T06:39:15.525Z,1.72
2023-01-31T06:41:42.366Z,1.64
2023-01-31T06:44:09.169Z,1.60
2023-01-31T06:46:36.485Z,1.58
2023-01-31T06:49:03.308Z,1.55
2023-01-31T06:51:30.627Z,1.53
2023-01-31T06:53:57.402Z,1.52
2023-01-31T06:56:24.178Z,1.51
2023-01-31T06:58:50.943Z,1.47
2023-01-31T07:01:17.878Z,1.44
2023-01-31T07:03:44.789Z,1.42
2023-01-31T07:06:11.926Z,1.38
2023-01-31T07:08:38.711Z,1.37
2023-01-31T07:11:06.635Z,1.37
2023-01-31T07:13:33.769Z,1.36
2023-01-31T07:16:00.970Z,1.33
2023-01-31T07:18:27.914Z,1.31
2023-01-31T07:20:54.918Z,1.30
2023-01-31T07:23:21.771Z,1.30
2023-01-31T07:25:48.522Z,1.36
2023-01-31T07:28:15.333Z,1.33
2023-01-31T07:30:43.741Z,1.34
2023-01-31T07:33:11.362Z,1.35
2023-01-31T07:35:38.092Z,1.40
2023-01-31T07:38:04.865Z,1.37
2023-01-31T07:40:32.082Z,1.37
2023-01-31T07:42:59.763Z,1.36
2023-01-31T07:45:27.301Z,1.44
2023-01-31T07:47:57.697Z,1.46
2023-01-31T07:50:24.429Z,1.48
2023-01-31T07:52:51.361Z,1.57
2023-01-31T07:55:18.735Z,1.53
2023-01-31T07:57:46.345Z,1.58
2023-01-31T08:00:32.150Z,1.62
2023-01-31T08:03:17.612Z,1.70
2023-01-31T08:05:47.908Z,1.82
2023-01-31T08:08:14.753Z,1.96
2023-01-31T08:10:41.523Z,2.03
2023-01-31T08:13:08.562Z,2.16
2023-01-31T08:15:35.394Z,2.33
2023-01-31T08:18:05.080Z,2.44
2023-01-31T08:20:33.080Z,2.54
2023-01-31T08:22:59.963Z,2.49
2023-01-31T08:25:29.279Z,2.54
2023-01-31T08:28:00.408Z,2.58
2023-01-31T08:30:28.160Z,2.68
2023-01-31T08:32:56.149Z,2.78
2023-01-31T08:35:23.090Z,2.88
2023-01-31T08:37:50.030Z,3.01
2023-01-31T08:40:17.107Z,3.11
2023-01-31T08:42:43.908Z,3.13
2023-01-31T08:45:10.781Z,3.15
2023-01-31T08:47:38.707Z,3.17
2023-01-31T08:50:13.156Z,3.18
2023-01-31T08:52:54.000Z,3.21
2023-01-31T08:55:22.101Z,3.29
2023-01-31T08:57:59.419Z,3.33
2023-01-31T09:00:26.692Z,3.42
2023-01-31T09:02:58.757Z,3.54
2023-01-31T09:05:27.339Z,3.62
2023-01-31T09:07:54.233Z,3.70
2023-01-31T09:10:22.284Z,3.73
2023-01-31T09:12:49.001Z,3.73
2023-01-31T09:15:15.885Z,3.77
2023-01-31T09:17:43.524Z,3.80
2023-01-31T09:20:10.922Z,3.93
2023-01-31T09:22:38.282Z,4.16
2023-01-31T09:25:05.686Z,4.18
2023-01-31T09:27:32.531Z,4.20
2023-01-31T09:29:59.251Z,4.16
2023-01-31T09:32:26.023Z,4.19
2023-01-31T09:34:52.840Z,4.18
2023-01-31T09:37:19.619Z,4.10
2023-01-31T09:39:46.325Z,4.08
2023-01-31T09:42:43.519Z,4.09
2023-01-31T09:45:16.847Z,4.11
2023-01-31T09:47:48.210Z,4.14
2023-01-31T09:50:14.898Z,4.19
2023-01-31T09:52:41.807Z,4.27
2023-01-31T09:55:20.105Z,4.33
2023-01-31T09:57:59.129Z,4.34
2023-01-31T10:00:33.944Z,4.26
2023-01-31T10:03:22.891Z,4.32
2023-01-31T10:06:12.526Z,4.58
2023-01-31T10:08:58.624Z,4.94
2023-01-31T10:11:36.491Z,5.32
2023-01-31T10:14:22.183Z,5.50
2023-01-31T10:17:03.330Z,5.41
2023-01-31T10:19:55.239Z,5.38
2023-01-31T10:22:36.138Z,5.31
2023-01-31T10:25:30.851Z,5.07
2023-01-31T10:28:03.748Z,4.90
2023-01-31T10:30:56.055Z,4.82
2023-01-31T10:33:38.378Z,5.00
2023-01-31T10:36:18.797Z,5.11
2023-01-31T10:38:58.342Z,5.39
2023-01-31T10:41:41.073Z,5.49
2023-01-31T10:44:33.815Z,5.63
2023-01-31T10:47:00.725Z,5.73
2023-01-31T10:49:29.172Z,5.62
2023-01-31T10:52:08.687Z,5.48
2023-01-31T10:55:13.102Z,5.43
2023-01-31T10:57:39.947Z,5.35
2023-01-31T11:00:12.698Z,5.20
2023-01-31T11:02:39.490Z,5.43
2023-01-31T11:05:06.505Z,5.76
2023-01-31T11:07:34.381Z,6.10
2023-01-31T11:10:21.814Z,6.28
2023-01-31T11:12:57.657Z,6.44
2023-01-31T11:15:28.505Z,6.40
2023-01-31T11:18:00.844Z,6.24
2023-01-31T11:20:31.552Z,6.12
2023-01-31T11:23:01.218Z,6.39
2023-01-31T11:25:31.232Z,6.33
2023-01-31T11:28:03.365Z,6.15
2023-01-31T11:30:32.778Z,5.90
2023-01-31T11:32:59.629Z,5.71
2023-01-31T11:35:35.910Z,5.70
2023-01-31T11:38:11.847Z,5.73
2023-01-31T11:40:40.811Z,5.74
2023-01-31T11:43:13.744Z,5.76
2023-01-31T11:45:45.394Z,5.82
2023-01-31T11:48:13.057Z,5.78
2023-01-31T11:50:45.876Z,5.72
2023-01-31T11:53:29.183Z,5.68
2023-01-31T11:56:00.586Z,5.59
2023-01-31T11:58:39.815Z,5.49
2023-01-31T12:01:13.300Z,5.63
2023-01-31T12:04:01.419Z,5.75
2023-01-31T12:06:40.533Z,5.75
2023-01-31T12:09:25.801Z,5.82
2023-01-31T12:11:57.013Z,5.74
2023-01-31T12:14:25.087Z,5.60
2023-01-31T12:16:56.136Z,5.55
2023-01-31T12:19:51.808Z,5.46
2023-01-31T12:22:41.789Z,5.43
2023-01-31T12:25:30.328Z,5.42
2023-01-31T12:28:23.133Z,5.46
2023-01-31T12:31:09.361Z,5.49
2023-01-31T12:34:01.439Z,5.41
2023-01-31T12:36:42.722Z,5.42
2023-01-31T12:39:38.773Z,5.65
2023-01-31T12:42:25.090Z,5.87
2023-01-31T12:45:19.214Z,6.11
2023-01-31T12:47:56.845Z,6.26
2023-01-31T12:50:28.597Z,6.20
2023-01-31T12:53:26.071Z,5.98
2023-01-31T12:56:30.415Z,5.70
2023-01-31T12:59:17.046Z,5.46
2023-01-31T13:01:56.526Z,5.43
2023-01-31T13:04:31.080Z,5.49
2023-01-31T13:07:03.452Z,5.53
2023-01-31T13:09:35.771Z,5.60
2023-01-31T13:12:13.307Z,5.56
2023-01-31T13:14:48.452Z,5.56
2023-01-31T13:17:22.731Z,5.55
2023-01-31T13:19:55.722Z,5.50
2023-01-31T13:22:49.357Z,5.45
2023-01-31T13:25:24.344Z,5.43
2023-01-31T13:27:59.199Z,5.40
2023-01-31T13:30:45.195Z,5.37
2023-01-31T13:33:37.120Z,5.42
2023-01-31T13:36:31.529Z,5.50
2023-01-31T13:39:03.836Z,5.53
2023-01-31T13:41:33.204Z,5.52
2023-01-31T13:44:01.662Z,5.49
2023-01-31T13:46:33.966Z,5.48
2023-01-31T13:49:19.967Z,5.47
2023-01-31T13:51:52.791Z,5.45
2023-01-31T13:54:22.470Z,5.44
2023-01-31T13:56:58.981Z,5.44
2023-01-31T13:59:29.449Z,5.40
2023-01-31T14:02:00.130Z,5.40
2023-01-31T14:04:32.981Z,5.41
2023-01-31T14:07:10.152Z,5.39
2023-01-31T14:09:44.549Z,5.37
2023-01-31T14:12:17.369Z,5.38
2023-01-31T14:14:55.434Z,5.46
2023-01-31T14:17:22.122Z,5.48
2023-01-31T14:19:51.884Z,5.47
2023-01-31T14:22:34.120Z,5.40
2023-01-31T14:25:02.398Z,5.38
2023-01-31T14:27:29.185Z,5.37
2023-01-31T14:30:10.139Z,5.43
2023-01-31T14:32:49.792Z,5.41
2023-01-31T14:35:16.568Z,5.45
2023-01-31T14:38:07.763Z,5.47
2023-01-31T14:40:40.550Z,5.40
2023-01-31T14:43:44.867Z,5.46
2023-01-31T14:46:21.049Z,5.39
2023-01-31T14:49:22.008Z,5.39
2023-01-31T14:52:19.058Z,5.45
2023-01-31T14:55:23.630Z,5.46
2023-01-31T14:57:56.038Z,5.43
2023-01-31T15:00:27.543Z,5.41
2023-01-31T15:03:24.859Z,5.41
2023-01-31T15:05:56.745Z,5.44
2023-01-31T15:08:23.453Z,5.45
2023-01-31T15:11:35.294Z,5.43
2023-01-31T15:14:37.793Z,5.40
2023-01-31T15:17:40.447Z,5.41
2023-01-31T15:20:18.025Z,5.38
2023-01-31T15:22:46.778Z,5.33
2023-01-31T15:25:42.294Z,5.32
2023-01-31T15:28:15.164Z,5.32
2023-01-31T15:30:43.139Z,5.33
2023-01-31T15:33:30.168Z,5.30
2023-01-31T15:36:15.363Z,5.28
2023-01-31T15:38:51.310Z,5.28
2023-01-31T15:41:38.734Z,5.32
2023-01-31T15:44:15.798Z,5.35
2023-01-31T15:46:45.325Z,5.32
2023-01-31T15:49:39.573Z,5.24
2023-01-31T15:52:19.137Z,5.23
2023-01-31T15:54:59.329Z,5.20
2023-01-31T15:57:38.134Z,5.19
2023-01-31T16:00:05.491Z,5.23
2023-01-31T16:02:37.765Z,5.20
2023-01-31T16:05:06.302Z,5.15
2023-01-31T16:07:33.251Z,5.15
2023-01-31T16:10:04.456Z,5.15
2023-01-31T16:12:32.317Z,5.13
2023-01-31T16:15:06.048Z,5.11
2023-01-31T16:17:33.202Z,5.14
2023-01-31T16:20:00.009Z,5.14
2023-01-31T16:22:30.290Z,5.12
2023-01-31T16:25:02.524Z,5.10
2023-01-31T16:27:35.876Z,5.12
2023-01-31T16:30:03.274Z,5.10
2023-01-31T16:32:37.555Z,5.09
2023-01-31T16:35:07.449Z,5.09
2023-01-31T16:37:37.141Z,5.09
2023-01-31T16:40:44.836Z,5.12
2023-01-31T16:43:27.545Z,5.12
2023-01-31T16:46:04.267Z,5.12
2023-01-31T16:48:33.510Z,5.14
2023-01-31T16:51:22.141Z,5.13
2023-01-31T16:54:20.452Z,5.14
2023-01-31T16:57:02.591Z,5.13
2023-01-31T16:59:38.383Z,5.11
2023-01-31T17:02:08.138Z,5.07
2023-01-31T17:04:38.753Z,5.06
2023-01-31T17:07:09.249Z,5.03
2023-01-31T17:09:36.003Z,5.04
2023-01-31T17:12:03.540Z,5.05
2023-01-31T17:14:30.439Z,5.05
2023-01-31T17:16:57.243Z,5.04
2023-01-31T17:19:24.089Z,5.03
2023-01-31T17:21:51.002Z,5.01
2023-01-31T17:24:22.678Z,4.99
2023-01-31T17:26:51.026Z,5.01
2023-01-31T17:29:18.598Z,5.01
2023-01-31T17:31:45.463Z,5.00
2023-01-31T17:34:16.011Z,5.01
2023-01-31T17:36:44.020Z,5.02
2023-01-31T17:39:10.918Z,5.02
2023-01-31T17:41:41.104Z,5.02
2023-01-31T17:44:12.633Z,5.03
2023-01-31T17:46:39.488Z,5.05
2023-01-31T17:49:06.211Z,5.07
2023-01-31T17:51:32.942Z,5.06
2023-01-31T17:53:59.791Z,5.05
2023-01-31T17:56:26.559Z,5.06
2023-01-31T17:58:53.337Z,5.07
2023-01-31T18:01:20.331Z,5.05
2023-01-31T18:03:47.207Z,5.07
2023-01-31T18:06:14.040Z,5.08
2023-01-31T18:08:40.841Z,5.07
2023-01-31T18:11:10.466Z,5.10
2023-01-31T18:13:38.406Z,5.10
2023-01-31T18:16:14.745Z,5.10
2023-01-31T18:18:43.921Z,5.09
2023-01-31T18:21:12.348Z,5.09
2023-01-31T18:23:39.126Z,5.09
2023-01-31T18:26:07.192Z,5.09
2023-01-31T18:28:35.072Z,5.08
2023-01-31T18:31:10.806Z,5.07
2023-01-31T18:33:37.940Z,5.09
2023-01-31T18:36:05.921Z,5.07
2023-01-31T18:38:33.007Z,5.09
2023-01-31T18:41:02.809Z,5.09
2023-01-31T18:43:30.456Z,5.09
2023-01-31T18:45:57.237Z,5.10
2023-01-31T18:48:24.299Z,5.12
2023-01-31T18:50:51.104Z,5.12
2023-01-31T18:53:17.937Z,5.12
2023-01-31T18:55:44.663Z,5.11
2023-01-31T18:58:11.388Z,5.11
2023-01-31T19:00:38.397Z,5.10
2023-01-31T19:03:05.209Z,5.10
2023-01-31T19:05:31.928Z,5.10
2023-01-31T19:07:58.639Z,5.09
2023-01-31T19:10:25.400Z,5.09
2023-01-31T19:12:52.168Z,5.10
2023-01-31T19:15:19.239Z,5.08
2023-01-31T19:17:46.067Z,5.06
2023-01-31T19:20:13.095Z,5.05
2023-01-31T19:22:39.856Z,5.04
2023-01-31T19:25:09.169Z,5.05
2023-01-31T19:27:39.861Z,5.05
2023-01-31T19:30:07.163Z,5.05
2023-01-31T19:32:33.972Z,5.04
2023-01-31T19:35:00.810Z,5.04
2023-01-31T19:37:28.627Z,5.05
2023-01-31T19:39:55.360Z,5.05
2023-01-31T19:42:22.099Z,5.05
2023-01-31T19:44:48.884Z,5.07
2023-01-31T19:47:15.800Z,5.05
2023-01-31T19:49:42.494Z,5.04
2023-01-31T19:52:09.579Z,5.04
2023-01-31T19:54:36.579Z,5.04
2023-01-31T19:57:03.546Z,5.04
2023-01-31T19:59:30.338Z,5.05
2023-01-31T20:01:57.209Z,5.04
2023-01-31T20:04:24.983Z,5.06
2023-01-31T20:06:51.737Z,5.05
2023-01-31T20:09:19.941Z,5.06
2023-01-31T20:11:46.979Z,5.04
2023-01-31T20:14:13.661Z,5.06
2023-01-31T20:16:40.478Z,5.06
2023-01-31T20:19:07.611Z,5.05
2023-01-31T20:21:34.752Z,5.03
2023-01-31T20:24:01.780Z,5.04
2023-01-31T20:26:29.831Z,5.03
2023-01-31T20:28:57.234Z,5.03
2023-01-31T20:31:25.119Z,5.02
2023-01-31T20:33:54.663Z,4.99
2023-01-31T20:36:25.020Z,4.98
2023-01-31T20:38:51.838Z,4.99
2023-01-31T20:41:19.251Z,5.00
2023-01-31T20:43:46.049Z,4.99
2023-01-31T20:46:14.932Z,5.02
2023-01-31T20:48:42.927Z,5.02
2023-01-31T20:51:09.875Z,5.01
2023-01-31T20:53:37.498Z,5.01
2023-01-31T20:56:12.270Z,4.93
2023-01-31T20:58:41.052Z,4.91
2023-01-31T21:01:09.323Z,4.88
2023-01-31T21:03:36.288Z,4.83
2023-01-31T21:06:04.309Z,4.80
2023-01-31T21:08:32.035Z,4.77
2023-01-31T21:11:00.261Z,4.76
2023-01-31T21:13:28.836Z,4.77
2023-01-31T21:16:04.336Z,4.77
2023-01-31T21:18:33.883Z,4.79
2023-01-31T21:21:08.905Z,4.77
2023-01-31T21:23:37.050Z,4.72
2023-01-31T21:26:05.651Z,4.67
2023-01-31T21:28:32.622Z,4.67
2023-01-31T21:31:09.775Z,4.68
2023-01-31T21:33:36.571Z,4.70
2023-01-31T21:36:08.717Z,4.68
2023-01-31T21:38:37.304Z,4.66
2023-01-31T21:41:23.180Z,4.67
2023-01-31T21:43:50.172Z,4.67
2023-01-31T21:46:17.139Z,4.67
2023-01-31T21:48:44.131Z,4.68
2023-01-31T21:51:13.513Z,4.71
2023-01-31T21:53:41.430Z,4.71
2023-01-31T21:56:10.927Z,4.70
2023-01-31T21:58:38.689Z,4.72
2023-01-31T22:01:10.022Z,4.73
2023-01-31T22:03:39.212Z,4.75
2023-01-31T22:06:08.700Z,4.77
2023-01-31T22:08:36.872Z,4.80
2023-01-31T22:11:06.360Z,4.83
2023-01-31T22:13:33.928Z,4.84
2023-01-31T22:16:02.645Z,4.83
2023-01-31T22:18:29.872Z,4.85
2023-01-31T22:21:14.604Z,4.86
2023-01-31T22:23:45.663Z,4.87
2023-01-31T22:26:16.352Z,4.87
2023-01-31T22:28:43.750Z,4.86
2023-01-31T22:31:11.358Z,4.86
2023-01-31T22:33:40.817Z,4.85
2023-01-31T22:36:09.173Z,4.88
2023-01-31T22:38:36.659Z,4.87
2023-01-31T22:41:05.998Z,4.85
2023-01-31T22:43:37.411Z,4.84
2023-01-31T22:46:04.634Z,4.87
2023-01-31T22:48:31.664Z,4.86
2023-01-31T22:51:00.607Z,4.85
2023-01-31T22:53:30.702Z,4.87
2023-01-31T22:56:11.719Z,4.86
2023-01-31T22:58:38.510Z,4.87
2023-01-31T23:01:20.699Z,4.86
2023-01-31T23:03:48.504Z,4.87
2023-01-31T23:06:16.601Z,4.87
2023-01-31T23:08:44.158Z,4.87
2023-01-31T23:11:13.410Z,4.83
2023-01-31T23:13:40.921Z,4.80
2023-01-31T23:16:08.829Z,4.80
2023-01-31T23:18:36.297Z,4.78
2023-01-31T23:21:14.693Z,4.76
2023-01-31T23:23:42.883Z,4.75
2023-01-31T23:26:10.589Z,4.73
2023-01-31T23:28:37.833Z,4.72
2023-01-31T23:31:04.797Z,4.68
2023-01-31T23:33:31.560Z,4.68
2023-01-31T23:35:58.276Z,4.64
2023-01-31T23:38:25.699Z,4.64
2023-01-31T23:40:53.788Z,4.66
2023-01-31T23:43:21.798Z,4.68
2023-01-31T23:45:49.363Z,4.69
2023-01-31T23:48:16.238Z,4.72
2023-01-31T23:50:43.156Z,4.76
2023-01-31T23:53:10.096Z,4.76
2023-01-31T23:55:37.132Z,4.78
2023-01-31T23:58:04.162Z,4.80
